This is the latest recevied weather packets stored in our database for station/object I8ZSE-10. If no packets are shown the sender has not sent any weather packets the latest 10 day(s).
| Time | Temp. | Humidity | Pressure | Rain* | Wind** | Luminosity | Snow |
|---|---|---|---|---|---|---|---|
| 1777770608 | 6.11° C | 73% | 1018.6 hPa | 0 mm | - | - | - |
| 1777770008 | 5.56° C | 74% | 1018.6 hPa | 0 mm | - | - | - |
| 1777769408 | 6.11° C | 73% | 1018.8 hPa | 0 mm | - | - | - |
| 1777768808 | 6.11° C | 72% | 1018.9 hPa | 0 mm | - | - | - |
| 1777768209 | 6.11° C | 71% | 1019.1 hPa | 0 mm | - | - | - |
| 1777767608 | 6.67° C | 70% | 1019.4 hPa | 0 mm | - | - | - |
| 1777767008 | 6.11° C | 72% | 1019.3 hPa | 0 mm | - | - | - |
| 1777766408 | 6.11° C | 72% | 1019.4 hPa | 0 mm | - | - | - |
| 1777765808 | 6.67° C | 71% | 1019.5 hPa | 0 mm | - | - | - |
| 1777765209 | 6.67° C | 72% | 1019.6 hPa | 0 mm | - | - | - |
| 1777764608 | 6.67° C | 72% | 1019.8 hPa | 0 mm | - | - | - |
| 1777764008 | 6.67° C | 71% | 1020 hPa | 0 mm | - | - | - |
| 1777763408 | 6.67° C | 72% | 1020 hPa | 0 mm | - | - | - |
| 1777762808 | 6.67° C | 73% | 1020.1 hPa | 0 mm | - | - | - |
| 1777762208 | 7.22° C | 71% | 1020.2 hPa | 0 mm | - | - | - |
| 1777761608 | 7.22° C | 71% | 1020.3 hPa | 0 mm | - | - | - |
| 1777761009 | 7.22° C | 71% | 1020.3 hPa | 0 mm | - | - | - |
| 1777760409 | 7.78° C | 70% | 1020.4 hPa | 0 mm | - | - | - |
| 1777759808 | 7.78° C | 70% | 1020.4 hPa | 0 mm | - | - | - |
| 1777759208 | 7.78° C | 70% | 1020.3 hPa | 0 mm | - | - | - |
| 1777758609 | 7.78° C | 70% | 1020.4 hPa | 0 mm | - | - | - |
| 1777758008 | 7.78° C | 70% | 1020.3 hPa | 0 mm | - | - | - |
| 1777757408 | 7.78° C | 70% | 1020.2 hPa | 0 mm | - | - | - |
| 1777756808 | 8.33° C | 68% | 1020.4 hPa | 0 mm | - | - | - |
| 1777756208 | 8.33° C | 69% | 1020.3 hPa | 0 mm | - | - | - |
* Rain latest hour (hover to see other rain measurements)
** Current wind speed in m/s (hover to see current wind gust speed)